createdAt,value
2024-01-27T00:00:52.178Z,0.92
2024-01-27T00:03:19.013Z,0.93
2024-01-27T00:05:46.172Z,0.91
2024-01-27T00:08:12.972Z,0.98
2024-01-27T00:10:39.693Z,0.93
2024-01-27T00:13:06.396Z,0.99
2024-01-27T00:15:33.367Z,1.02
2024-01-27T00:18:00.299Z,1.03
2024-01-27T00:20:27.492Z,0.93
2024-01-27T00:22:54.242Z,0.87
2024-01-27T00:25:21.024Z,0.90
2024-01-27T00:27:47.857Z,0.86
2024-01-27T00:30:14.912Z,0.88
2024-01-27T00:32:41.730Z,0.90
2024-01-27T00:35:09.795Z,1.01
2024-01-27T00:37:36.488Z,1.03
2024-01-27T00:40:03.203Z,1.05
2024-01-27T00:42:30.137Z,1.04
2024-01-27T00:44:56.885Z,0.97
2024-01-27T00:47:24.131Z,0.87
2024-01-27T00:49:50.972Z,0.80
2024-01-27T00:52:17.794Z,0.75
2024-01-27T00:54:44.496Z,0.71
2024-01-27T00:57:11.286Z,0.72
2024-01-27T00:59:38.150Z,0.81
2024-01-27T01:02:04.855Z,0.84
2024-01-27T01:04:31.973Z,0.73
2024-01-27T01:06:59.109Z,0.66
2024-01-27T01:09:26.026Z,0.56
2024-01-27T01:11:52.894Z,0.57
2024-01-27T01:14:19.634Z,0.61
2024-01-27T01:16:46.342Z,0.64
2024-01-27T01:19:13.057Z,0.64
2024-01-27T01:21:39.752Z,0.65
2024-01-27T01:24:06.533Z,0.53
2024-01-27T01:26:33.589Z,0.55
2024-01-27T01:29:00.285Z,0.43
2024-01-27T01:31:27.274Z,0.43
2024-01-27T01:33:54.420Z,0.47
2024-01-27T01:36:21.475Z,0.48
2024-01-27T01:38:48.295Z,0.47
2024-01-27T01:41:15.194Z,0.42
2024-01-27T01:43:41.906Z,0.36
2024-01-27T01:46:09.043Z,0.22
2024-01-27T01:48:35.892Z,0.17
2024-01-27T01:51:03.565Z,0.12
2024-01-27T01:53:30.487Z,0.17
2024-01-27T01:55:57.226Z,0.15
2024-01-27T01:58:23.934Z,0.10
2024-01-27T02:00:50.693Z,0.10
2024-01-27T02:03:17.543Z,0.06
2024-01-27T02:05:44.326Z,-0.07
2024-01-27T02:08:11.186Z,-0.14
2024-01-27T02:10:38.272Z,-0.09
2024-01-27T02:13:06.854Z,-0.10
2024-01-27T02:15:33.650Z,-0.18
2024-01-27T02:18:00.525Z,-0.21
2024-01-27T02:20:27.236Z,-0.27
2024-01-27T02:22:53.956Z,-0.34
2024-01-27T02:25:20.633Z,-0.33
2024-01-27T02:27:47.395Z,-0.29
2024-01-27T02:30:14.224Z,-0.32
2024-01-27T02:32:41.067Z,-0.31
2024-01-27T02:35:09.392Z,-0.42
2024-01-27T02:37:36.160Z,-0.45
2024-01-27T02:40:02.928Z,-0.47
2024-01-27T02:42:29.807Z,-0.51
2024-01-27T02:44:56.858Z,-0.54
2024-01-27T02:47:23.665Z,-0.54
2024-01-27T02:49:50.526Z,-0.43
2024-01-27T02:52:17.442Z,-0.45
2024-01-27T02:54:44.124Z,-0.48
2024-01-27T02:57:14.254Z,-0.55
2024-01-27T02:59:41.414Z,-0.60
2024-01-27T03:02:08.192Z,-0.58
2024-01-27T03:04:35.276Z,-0.62
2024-01-27T03:07:02.296Z,-0.60
2024-01-27T03:09:29.122Z,-0.56
2024-01-27T03:11:55.930Z,-0.52
2024-01-27T03:14:22.749Z,-0.59
2024-01-27T03:16:49.429Z,-0.56
2024-01-27T03:19:16.187Z,-0.56
2024-01-27T03:21:43.052Z,-0.47
2024-01-27T03:24:09.836Z,-0.44
2024-01-27T03:26:36.653Z,-0.57
2024-01-27T03:29:03.326Z,-0.56
2024-01-27T03:31:34.245Z,-0.51
2024-01-27T03:34:01.650Z,-0.50
2024-01-27T03:36:28.945Z,-0.52
2024-01-27T03:38:59.089Z,-0.62
2024-01-27T03:41:25.951Z,-0.58
2024-01-27T03:43:52.633Z,-0.47
2024-01-27T03:46:19.345Z,-0.48
2024-01-27T03:48:46.579Z,-0.55
2024-01-27T03:51:13.813Z,-0.58
2024-01-27T03:53:40.503Z,-0.70
2024-01-27T03:56:07.522Z,-0.64
2024-01-27T03:58:34.430Z,-0.60
2024-01-27T04:01:02.020Z,-0.59
2024-01-27T04:03:28.734Z,-0.66
2024-01-27T04:05:55.687Z,-0.74
2024-01-27T04:08:22.486Z,-0.79
2024-01-27T04:10:49.221Z,-0.86
2024-01-27T04:13:15.890Z,-0.87
2024-01-27T04:15:42.703Z,-0.91
2024-01-27T04:18:10.883Z,-0.88
2024-01-27T04:20:37.726Z,-0.83
2024-01-27T04:23:05.179Z,-0.87
2024-01-27T04:25:31.924Z,-0.90
2024-01-27T04:27:59.180Z,-0.97
2024-01-27T04:30:25.896Z,-1.02
2024-01-27T04:32:53.229Z,-0.93
2024-01-27T04:35:20.156Z,-0.85
2024-01-27T04:37:46.936Z,-0.95
2024-01-27T04:40:13.700Z,-0.98
2024-01-27T04:42:40.902Z,-1.08
2024-01-27T04:45:08.630Z,-1.02
2024-01-27T04:47:35.741Z,-1.04
2024-01-27T04:50:02.668Z,-1.09
2024-01-27T04:52:29.394Z,-1.04
2024-01-27T04:54:56.084Z,-1.08
2024-01-27T04:57:53.406Z,-1.03
2024-01-27T05:00:20.630Z,-1.08
2024-01-27T05:02:47.393Z,-1.17
2024-01-27T05:05:14.670Z,-1.20
2024-01-27T05:07:41.498Z,-1.15
2024-01-27T05:10:12.236Z,-1.20
2024-01-27T05:12:39.104Z,-1.26
2024-01-27T05:15:06.269Z,-1.26
2024-01-27T05:17:33.636Z,-1.27
2024-01-27T05:20:00.474Z,-1.26
2024-01-27T05:22:27.230Z,-1.31
2024-01-27T05:24:53.898Z,-1.39
2024-01-27T05:27:20.592Z,-1.36
2024-01-27T05:29:47.302Z,-1.38
2024-01-27T05:32:14.099Z,-1.40
2024-01-27T05:34:41.073Z,-1.36
2024-01-27T05:37:08.501Z,-1.35
2024-01-27T05:39:35.285Z,-1.35
2024-01-27T05:42:02.112Z,-1.45
2024-01-27T05:44:28.887Z,-1.45
2024-01-27T05:46:55.571Z,-1.37
2024-01-27T05:49:22.462Z,-1.38
2024-01-27T05:51:51.340Z,-1.46
2024-01-27T05:54:18.154Z,-1.49
2024-01-27T05:56:44.920Z,-1.48
2024-01-27T05:59:11.653Z,-1.44
2024-01-27T06:01:38.720Z,-1.44
2024-01-27T06:04:05.624Z,-1.40
2024-01-27T06:06:32.567Z,-1.48
2024-01-27T06:08:59.376Z,-1.46
2024-01-27T06:11:27.098Z,-1.60
2024-01-27T06:13:53.831Z,-1.54
2024-01-27T06:16:20.603Z,-1.53
2024-01-27T06:18:47.569Z,-1.52
2024-01-27T06:21:14.765Z,-1.39
2024-01-27T06:23:41.765Z,-1.37
2024-01-27T06:26:09.002Z,-1.32
2024-01-27T06:28:36.286Z,-1.21
2024-01-27T06:31:05.073Z,-1.18
2024-01-27T06:33:32.795Z,-1.21
2024-01-27T06:35:59.666Z,-1.17
2024-01-27T06:38:27.583Z,-1.22
2024-01-27T06:40:54.693Z,-1.31
2024-01-27T06:43:21.658Z,-1.33
2024-01-27T06:45:48.386Z,-1.29
2024-01-27T06:48:15.381Z,-1.32
2024-01-27T06:50:42.169Z,-1.30
2024-01-27T06:53:09.115Z,-1.27
2024-01-27T06:55:35.769Z,-1.32
2024-01-27T06:58:02.603Z,-1.31
2024-01-27T07:00:29.380Z,-1.28
2024-01-27T07:02:59.179Z,-1.31
2024-01-27T07:05:26.164Z,-1.38
2024-01-27T07:07:53.178Z,-1.43
2024-01-27T07:10:19.847Z,-1.41
2024-01-27T07:12:49.482Z,-1.44
2024-01-27T07:15:16.255Z,-1.36
2024-01-27T07:17:43.053Z,-1.26
2024-01-27T07:20:10.415Z,-1.32
2024-01-27T07:22:37.776Z,-1.39
2024-01-27T07:25:04.910Z,-1.40
2024-01-27T07:27:32.043Z,-1.29
2024-01-27T07:30:01.009Z,-1.38
2024-01-27T07:32:27.727Z,-1.41
2024-01-27T07:34:57.209Z,-1.45
2024-01-27T07:37:23.955Z,-1.35
2024-01-27T07:39:53.858Z,-1.49
2024-01-27T07:42:20.641Z,-1.48
2024-01-27T07:44:47.394Z,-1.45
2024-01-27T07:47:14.073Z,-1.26
2024-01-27T07:49:40.894Z,-1.14
2024-01-27T07:52:07.632Z,-1.06
2024-01-27T07:54:40.416Z,-1.04
2024-01-27T07:57:07.732Z,-1.06
2024-01-27T07:59:34.513Z,-1.09
2024-01-27T08:02:01.485Z,-1.06
2024-01-27T08:04:28.329Z,-1.27
2024-01-27T08:06:55.322Z,-1.17
2024-01-27T08:09:22.303Z,-1.18
2024-01-27T08:11:54.187Z,-1.05
2024-01-27T08:14:22.163Z,-0.85
2024-01-27T08:16:48.998Z,-0.86
2024-01-27T08:19:21.517Z,-1.03
2024-01-27T08:21:48.699Z,-0.87
2024-01-27T08:24:15.559Z,-0.70
2024-01-27T08:26:43.520Z,-0.66
2024-01-27T08:29:10.773Z,-0.62
2024-01-27T08:31:39.349Z,-0.55
2024-01-27T08:34:06.435Z,-0.67
2024-01-27T08:36:35.090Z,-0.71
2024-01-27T08:39:02.072Z,-0.52
2024-01-27T08:41:29.990Z,-0.49
2024-01-27T08:43:56.950Z,-0.54
2024-01-27T08:46:23.650Z,-0.55
2024-01-27T08:48:50.503Z,-0.58
2024-01-27T08:51:18.122Z,-0.47
2024-01-27T08:53:49.828Z,-0.43
2024-01-27T08:56:18.616Z,-0.33
2024-01-27T08:58:45.906Z,-0.20
2024-01-27T09:01:15.971Z,-0.10
2024-01-27T09:03:42.988Z,-0.10
2024-01-27T09:06:09.950Z,-0.12
2024-01-27T09:08:37.396Z,0.08
2024-01-27T09:11:04.400Z,0.23
2024-01-27T09:13:31.286Z,0.09
2024-01-27T09:15:58.659Z,-0.21
2024-01-27T09:18:27.973Z,0.02
2024-01-27T09:20:55.288Z,-0.07
2024-01-27T09:23:22.331Z,0.17
2024-01-27T09:25:49.057Z,0.30
2024-01-27T09:28:17.336Z,0.48
2024-01-27T09:30:44.386Z,0.49
2024-01-27T09:33:11.922Z,0.52
2024-01-27T09:35:38.777Z,0.65
2024-01-27T09:38:07.064Z,0.58
2024-01-27T09:40:33.871Z,0.52
2024-01-27T09:43:01.811Z,0.55
2024-01-27T09:45:29.064Z,0.63
2024-01-27T09:47:59.303Z,0.70
2024-01-27T09:50:26.249Z,0.72
2024-01-27T09:52:54.401Z,0.89
2024-01-27T09:55:22.594Z,0.93
2024-01-27T09:57:49.833Z,1.09
2024-01-27T10:00:18.087Z,1.10
2024-01-27T10:02:47.982Z,1.10
2024-01-27T10:05:16.135Z,1.04
2024-01-27T10:07:43.325Z,1.33
2024-01-27T10:10:10.596Z,1.52
2024-01-27T10:12:43.684Z,1.48
2024-01-27T10:15:23.785Z,1.45
2024-01-27T10:17:51.346Z,1.48
2024-01-27T10:20:20.286Z,1.62
2024-01-27T10:22:47.864Z,1.71
2024-01-27T10:25:15.914Z,1.73
2024-01-27T10:27:43.184Z,1.71
2024-01-27T10:30:18.406Z,1.83
2024-01-27T10:32:56.124Z,1.81
2024-01-27T10:35:22.858Z,1.67
2024-01-27T10:37:56.732Z,1.82
2024-01-27T10:40:25.657Z,1.96
2024-01-27T10:42:58.280Z,1.95
2024-01-27T10:45:25.484Z,1.98
2024-01-27T10:47:52.899Z,2.21
2024-01-27T10:50:19.958Z,2.34
2024-01-27T10:52:48.689Z,2.38
2024-01-27T10:55:17.029Z,2.47
2024-01-27T10:57:45.345Z,2.49
2024-01-27T11:00:13.811Z,2.74
2024-01-27T11:02:42.746Z,3.00
2024-01-27T11:05:12.047Z,2.80
2024-01-27T11:07:40.656Z,3.01
2024-01-27T11:10:08.961Z,3.17
2024-01-27T11:12:36.589Z,3.21
2024-01-27T11:15:04.810Z,3.13
2024-01-27T11:17:42.892Z,3.07
2024-01-27T11:20:12.458Z,3.01
2024-01-27T11:22:40.547Z,3.07
2024-01-27T11:25:14.799Z,3.03
2024-01-27T11:27:42.380Z,3.04
2024-01-27T11:30:30.005Z,3.18
2024-01-27T11:33:02.640Z,3.12
2024-01-27T11:35:29.518Z,3.25
2024-01-27T11:37:56.569Z,3.43
2024-01-27T11:40:23.468Z,3.63
2024-01-27T11:43:01.166Z,3.78
2024-01-27T11:45:31.357Z,3.96
2024-01-27T11:47:58.351Z,4.27
2024-01-27T11:50:26.005Z,4.48
2024-01-27T11:52:52.766Z,4.63
2024-01-27T11:55:20.370Z,4.83
2024-01-27T11:57:47.209Z,4.68
2024-01-27T12:00:14.394Z,4.58
2024-01-27T12:02:42.198Z,4.49
2024-01-27T12:05:13.479Z,4.55
2024-01-27T12:07:40.368Z,4.41
2024-01-27T12:10:08.704Z,4.56
2024-01-27T12:12:35.458Z,4.64
2024-01-27T12:15:03.695Z,4.56
2024-01-27T12:17:32.174Z,4.66
2024-01-27T12:19:59.070Z,4.82
2024-01-27T12:22:30.649Z,4.79
2024-01-27T12:25:12.475Z,4.84
2024-01-27T12:27:40.210Z,5.08
2024-01-27T12:30:07.712Z,5.39
2024-01-27T12:32:34.657Z,5.41
2024-01-27T12:35:08.811Z,5.24
2024-01-27T12:37:36.337Z,5.05
2024-01-27T12:40:03.415Z,4.77
2024-01-27T12:42:36.109Z,4.89
2024-01-27T12:45:02.916Z,4.96
2024-01-27T12:47:29.879Z,5.19
2024-01-27T12:50:01.366Z,5.23
2024-01-27T12:52:28.482Z,5.42
2024-01-27T12:54:58.693Z,5.61
2024-01-27T12:57:32.541Z,5.85
2024-01-27T12:59:59.349Z,5.88
2024-01-27T13:02:27.298Z,6.04
2024-01-27T13:05:07.140Z,6.26
2024-01-27T13:07:36.170Z,6.34
2024-01-27T13:10:03.671Z,6.30
2024-01-27T13:12:38.709Z,6.56
2024-01-27T13:15:13.297Z,6.76
2024-01-27T13:17:45.961Z,6.88
2024-01-27T13:20:17.152Z,6.99
2024-01-27T13:22:46.431Z,7.01
2024-01-27T13:25:13.270Z,6.92
2024-01-27T13:27:39.936Z,6.91
2024-01-27T13:30:07.449Z,6.93
2024-01-27T13:32:37.421Z,6.99
2024-01-27T13:35:05.369Z,7.20
2024-01-27T13:37:35.158Z,7.14
2024-01-27T13:40:05.584Z,7.10
2024-01-27T13:42:35.569Z,6.97
2024-01-27T13:45:02.769Z,7.08
2024-01-27T13:47:29.667Z,7.06
2024-01-27T13:49:59.277Z,7.06
2024-01-27T13:52:26.282Z,7.17
2024-01-27T13:54:53.922Z,6.96
2024-01-27T13:57:22.240Z,7.07
2024-01-27T13:59:59.083Z,7.10
2024-01-27T14:02:32.265Z,7.14
2024-01-27T14:05:02.443Z,7.19
2024-01-27T14:07:33.401Z,6.89
2024-01-27T14:10:00.963Z,6.94
2024-01-27T14:12:30.151Z,7.00
2024-01-27T14:15:12.708Z,7.01
2024-01-27T14:17:39.471Z,6.95
2024-01-27T14:20:07.139Z,6.84
2024-01-27T14:22:34.014Z,6.75
2024-01-27T14:25:00.730Z,6.29
2024-01-27T14:27:27.473Z,6.02
2024-01-27T14:29:58.244Z,5.78
2024-01-27T14:32:25.011Z,5.62
2024-01-27T14:34:51.707Z,5.61
2024-01-27T14:37:18.658Z,5.43
2024-01-27T14:39:47.078Z,5.35
2024-01-27T14:42:14.333Z,5.24
2024-01-27T14:44:41.697Z,5.03
2024-01-27T14:47:09.395Z,4.83
2024-01-27T14:49:38.685Z,4.68
2024-01-27T14:52:08.271Z,4.48
2024-01-27T14:54:38.332Z,4.43
2024-01-27T14:57:06.133Z,4.33
2024-01-27T14:59:32.931Z,4.18
2024-01-27T15:01:59.632Z,4.20
2024-01-27T15:04:28.057Z,4.14
2024-01-27T15:06:56.435Z,4.02
2024-01-27T15:09:23.933Z,3.98
2024-01-27T15:11:52.618Z,3.92
2024-01-27T15:14:19.810Z,3.89
2024-01-27T15:16:47.557Z,3.85
2024-01-27T15:19:14.717Z,3.77
2024-01-27T15:21:41.532Z,3.60
2024-01-27T15:24:08.477Z,3.62
2024-01-27T15:26:35.328Z,3.40
2024-01-27T15:29:02.124Z,3.40
2024-01-27T15:31:29.406Z,3.33
2024-01-27T15:33:56.255Z,3.24
2024-01-27T15:36:26.264Z,3.22
2024-01-27T15:38:53.187Z,3.31
2024-01-27T15:41:20.240Z,3.34
2024-01-27T15:43:48.805Z,3.34
2024-01-27T15:46:16.250Z,3.30
2024-01-27T15:48:43.508Z,3.19
2024-01-27T15:51:10.855Z,3.04
2024-01-27T15:53:37.663Z,2.79
2024-01-27T15:56:04.818Z,2.71
2024-01-27T15:58:33.053Z,2.76
2024-01-27T16:01:00.152Z,2.76
2024-01-27T16:03:27.279Z,2.73
2024-01-27T16:05:54.186Z,2.52
2024-01-27T16:08:21.071Z,2.35
2024-01-27T16:10:49.321Z,2.21
2024-01-27T16:13:16.110Z,2.21
2024-01-27T16:15:43.068Z,1.95
2024-01-27T16:18:10.003Z,1.99
2024-01-27T16:20:36.787Z,1.99
2024-01-27T16:23:03.504Z,1.95
2024-01-27T16:25:30.204Z,1.89
2024-01-27T16:27:58.682Z,1.85
2024-01-27T16:30:26.042Z,1.76
2024-01-27T16:32:52.921Z,1.65
2024-01-27T16:35:20.728Z,1.54
2024-01-27T16:37:47.460Z,1.50
2024-01-27T16:40:14.169Z,1.44
2024-01-27T16:42:40.858Z,1.39
2024-01-27T16:45:08.225Z,1.36
2024-01-27T16:47:35.324Z,1.39
2024-01-27T16:50:04.890Z,1.34
2024-01-27T16:52:32.013Z,1.29
2024-01-27T16:54:58.810Z,1.16
2024-01-27T16:57:25.736Z,1.16
2024-01-27T16:59:54.099Z,1.11
2024-01-27T17:02:20.888Z,1.03
2024-01-27T17:04:50.921Z,0.95
2024-01-27T17:07:18.237Z,0.96
2024-01-27T17:09:45.311Z,0.91
2024-01-27T17:12:12.870Z,0.86
2024-01-27T17:14:41.246Z,0.79
2024-01-27T17:17:08.522Z,0.82
2024-01-27T17:19:37.026Z,0.87
2024-01-27T17:22:04.884Z,0.91
2024-01-27T17:24:32.003Z,0.87
2024-01-27T17:27:00.720Z,0.82
2024-01-27T17:29:27.417Z,0.63
2024-01-27T17:31:54.250Z,0.54
2024-01-27T17:34:22.382Z,0.59
2024-01-27T17:36:49.252Z,0.65
2024-01-27T17:39:17.251Z,0.60
2024-01-27T17:41:44.975Z,0.56
2024-01-27T17:44:11.967Z,0.54
2024-01-27T17:46:38.901Z,0.52
2024-01-27T17:49:08.861Z,0.45
2024-01-27T17:51:35.951Z,0.36
2024-01-27T17:54:05.981Z,0.37
2024-01-27T17:56:32.933Z,0.44
2024-01-27T17:58:59.852Z,0.38
2024-01-27T18:01:26.625Z,0.38
2024-01-27T18:03:53.582Z,0.33
2024-01-27T18:06:20.548Z,0.27
2024-01-27T18:08:47.359Z,0.25
2024-01-27T18:11:14.245Z,0.27
2024-01-27T18:13:47.351Z,0.25
2024-01-27T18:16:17.278Z,0.26
2024-01-27T18:18:44.133Z,0.23
2024-01-27T18:21:11.038Z,0.26
2024-01-27T18:23:38.299Z,0.20
2024-01-27T18:26:05.054Z,0.25
2024-01-27T18:28:33.243Z,0.22
2024-01-27T18:31:00.063Z,0.17
2024-01-27T18:33:26.990Z,0.17
2024-01-27T18:35:55.535Z,0.17
2024-01-27T18:38:22.238Z,0.17
2024-01-27T18:40:48.971Z,0.13
2024-01-27T18:43:15.657Z,-0.04
2024-01-27T18:45:42.849Z,-0.03
2024-01-27T18:48:09.906Z,-0.13
2024-01-27T18:50:37.981Z,-0.19
2024-01-27T18:53:05.368Z,-0.22
2024-01-27T18:55:39.053Z,-0.26
2024-01-27T18:58:08.041Z,-0.25
2024-01-27T19:00:37.034Z,-0.18
2024-01-27T19:03:08.049Z,-0.21
2024-01-27T19:05:35.412Z,-0.25
2024-01-27T19:08:02.644Z,-0.29
2024-01-27T19:10:29.449Z,-0.34
2024-01-27T19:12:56.243Z,-0.33
2024-01-27T19:15:23.062Z,-0.29
2024-01-27T19:17:50.218Z,-0.28
2024-01-27T19:20:17.129Z,-0.36
2024-01-27T19:22:47.611Z,-0.39
2024-01-27T19:25:15.797Z,-0.51
2024-01-27T19:27:42.912Z,-0.46
2024-01-27T19:30:10.385Z,-0.45
2024-01-27T19:32:37.169Z,-0.57
2024-01-27T19:35:04.830Z,-0.58
2024-01-27T19:37:31.829Z,-0.55
2024-01-27T19:39:58.516Z,-0.63
2024-01-27T19:42:25.364Z,-0.63
2024-01-27T19:44:52.248Z,-0.62
2024-01-27T19:47:18.944Z,-0.60
2024-01-27T19:49:45.918Z,-0.63
2024-01-27T19:52:12.650Z,-0.54
2024-01-27T19:54:40.094Z,-0.58
2024-01-27T19:57:07.104Z,-0.61
2024-01-27T19:59:33.822Z,-0.55
2024-01-27T20:02:00.494Z,-0.60
2024-01-27T20:04:27.815Z,-0.64
2024-01-27T20:06:58.879Z,-0.65
2024-01-27T20:09:28.260Z,-0.65
2024-01-27T20:11:55.736Z,-0.63
2024-01-27T20:14:23.629Z,-0.68
2024-01-27T20:16:51.299Z,-0.74
2024-01-27T20:19:18.899Z,-0.76
2024-01-27T20:21:46.293Z,-0.79
2024-01-27T20:24:13.662Z,-0.74
2024-01-27T20:26:43.499Z,-0.71
2024-01-27T20:29:10.840Z,-0.71
2024-01-27T20:31:37.814Z,-0.74
2024-01-27T20:34:05.938Z,-0.76
2024-01-27T20:36:32.939Z,-0.79
2024-01-27T20:39:01.200Z,-0.78
2024-01-27T20:41:28.093Z,-0.80
2024-01-27T20:43:54.998Z,-0.91
2024-01-27T20:46:21.792Z,-0.90
2024-01-27T20:48:48.713Z,-0.88
2024-01-27T20:51:16.087Z,-0.91
2024-01-27T20:53:42.882Z,-0.86
2024-01-27T20:56:10.688Z,-0.93
2024-01-27T20:58:38.242Z,-0.89
2024-01-27T21:01:05.776Z,-0.90
2024-01-27T21:03:32.702Z,-1.01
2024-01-27T21:06:00.599Z,-0.95
2024-01-27T21:08:30.797Z,-0.92
2024-01-27T21:10:57.627Z,-0.94
2024-01-27T21:13:27.092Z,-0.97
2024-01-27T21:15:54.221Z,-0.92
2024-01-27T21:18:21.366Z,-0.86
2024-01-27T21:20:48.660Z,-0.81
2024-01-27T21:23:15.806Z,-0.87
2024-01-27T21:25:42.850Z,-0.86
2024-01-27T21:28:09.748Z,-0.83
2024-01-27T21:30:37.005Z,-0.75
2024-01-27T21:33:04.491Z,-0.69
2024-01-27T21:35:34.198Z,-0.66
2024-01-27T21:38:01.376Z,-0.77
2024-01-27T21:40:28.182Z,-0.76
2024-01-27T21:42:55.091Z,-0.74
2024-01-27T21:45:22.222Z,-0.72
2024-01-27T21:47:49.487Z,-0.76
2024-01-27T21:50:16.590Z,-0.71
2024-01-27T21:52:43.399Z,-0.72
2024-01-27T21:55:10.260Z,-0.79
2024-01-27T21:57:37.316Z,-0.78
2024-01-27T22:00:05.046Z,-0.79
2024-01-27T22:02:41.747Z,-0.78
2024-01-27T22:05:11.667Z,-0.75
2024-01-27T22:07:38.911Z,-0.83
2024-01-27T22:10:06.157Z,-0.86
2024-01-27T22:12:32.923Z,-0.83
2024-01-27T22:15:00.222Z,-0.78
2024-01-27T22:17:27.490Z,-0.87
2024-01-27T22:19:54.401Z,-0.93
2024-01-27T22:22:21.114Z,-0.93
2024-01-27T22:24:48.006Z,-0.94
2024-01-27T22:27:15.092Z,-0.90
2024-01-27T22:30:03.845Z,-0.87
2024-01-27T22:32:33.489Z,-0.83
2024-01-27T22:35:00.425Z,-0.80
2024-01-27T22:37:27.576Z,-0.80
2024-01-27T22:39:55.453Z,-0.78
2024-01-27T22:42:25.359Z,-0.82
2024-01-27T22:44:52.475Z,-0.81
2024-01-27T22:47:19.217Z,-0.79
2024-01-27T22:49:48.553Z,-0.81
2024-01-27T22:52:15.921Z,-0.80
2024-01-27T22:54:49.444Z,-0.77
2024-01-27T22:57:33.833Z,-0.79
2024-01-27T23:00:34.716Z,-0.81
2024-01-27T23:03:05.042Z,-0.82
2024-01-27T23:05:33.894Z,-0.81
2024-01-27T23:08:03.504Z,-0.81
2024-01-27T23:10:34.199Z,-0.79
2024-01-27T23:13:04.352Z,-0.80
2024-01-27T23:15:31.453Z,-0.76
2024-01-27T23:17:58.297Z,-0.80
2024-01-27T23:20:25.558Z,-0.79
2024-01-27T23:22:52.216Z,-0.79
2024-01-27T23:25:18.958Z,-0.89
2024-01-27T23:27:45.762Z,-0.41
2024-01-27T23:30:14.946Z,-0.41
2024-01-27T23:32:42.519Z,-0.53
2024-01-27T23:35:09.950Z,-0.63
2024-01-27T23:37:38.968Z,-0.61
2024-01-27T23:40:16.831Z,-0.57
2024-01-27T23:42:44.677Z,-0.65
2024-01-27T23:45:11.646Z,-0.75
2024-01-27T23:47:38.373Z,-0.74
2024-01-27T23:50:06.173Z,-0.76
2024-01-27T23:52:36.644Z,-0.69
2024-01-27T23:55:04.356Z,-0.67
2024-01-27T23:57:31.122Z,-0.69
2024-01-27T23:59:59.306Z,-0.09
